aviador You're here:

PAKP Decoded Metar

ANAKTUVUK PASS in AK, USA
Report Time2018-05-21 23:56:00
UTC Time2018-05-22 00:12:10
Flight Rules vfr VFR
Wind040° at 17 Gusting to 22 kt
W.Decomp.*RWY 02: 17.0 kt HW 0.3 kt LCW
W.Rank040° ranks 1
Current wind is above 040° avg. (9.6)
Visibility9999 m
Phenomena:N/A
Clouds:Broken 095 Hf
Expected CloudBase > 1,200 ft AGL from Temp-Dew spread
Ceiling9,500 ft
Temp-1°C (ISA -12)
Dew Point-4°C (80% RH)
AAT-9.6°C
QNH1000 hPa
Density Alt1,181 ft
Elevation2,106 ft
Report Wrong Elevation
Raw Report
PAKP 212356Z AUTO 04017G22KT 10SM BKN095 M01/M04 A2954 RMK AO2
SLP045 60000 T10061039 10011 21022 56005 FZRANO=

Extra information for PAKP:More info

Metar Taf Metar & Taf Last 4 Metars F.Rules Stats Wind Profile Meteogram Temp Stats Airport Information Weather charts Add Link Nearby VenuesMetar ALERT Operation Metar Decoded Social comments

AIRNAV info for PAKP